This is the latest recevied weather packets stored in our database for station/object K4CRS-13. If no packets are shown the sender has not sent any weather packets the latest 10 day(s).
| Time | Temp. | Humidity | Pressure | Rain* | Wind** | Luminosity | Snow |
|---|---|---|---|---|---|---|---|
| 1788010804 | 26.11° C | 78% | 1054.8 hPa | 0 mm | - | 295 W/m² | - |
| 1788010503 | 25.56° C | 79% | 1054.9 hPa | 0 mm | - | 277 W/m² | - |
| 1788010198 | 25.56° C | 78% | 1054.7 hPa | 0 mm | - | 261 W/m² | - |
| 1788009897 | 25° C | 80% | 1054.6 hPa | 0 mm | - | 244 W/m² | - |
| 1788009595 | 25° C | 80% | 1054.5 hPa | 0 mm | - | 223 W/m² | - |
| 1788009290 | 25° C | 81% | 1054.6 hPa | 0 mm | - | 208 W/m² | - |
| 1788008985 | 24.44° C | 82% | 1054.6 hPa | 0 mm | - | 190 W/m² | - |
| 1788008682 | 24.44° C | 82% | 1054.6 hPa | 0 mm | - | 177 W/m² | - |
| 1788008379 | 23.89° C | 85% | 1054.5 hPa | 0 mm | - | 161 W/m² | - |
| 1788008077 | 23.33° C | 88% | 1054.5 hPa | 0 mm | - | 144 W/m² | - |
| 1788007776 | 22.78° C | 92% | 1054.4 hPa | 0 mm | - | 104 W/m² | - |
| 1788007471 | 21.67° C | 96% | 1054.4 hPa | 0 mm | - | 86 W/m² | - |
| 1788007170 | 21.67° C | 97% | 1054.6 hPa | 0 mm | - | 74 W/m² | - |
| 1788006870 | 21.11° C | 98% | 1054.6 hPa | 0 mm | - | 69 W/m² | - |
| 1788006570 | 20.56° C | 98% | 1054.4 hPa | 0 mm | - | 61 W/m² | - |
| 1788006265 | 20° C | 99% | 1054.3 hPa | 0 mm | - | 54 W/m² | - |
| 1788005963 | 19.44° C | 99% | 1054.3 hPa | 0 mm | - | 48 W/m² | - |
| 1788005659 | 18.89° C | 99% | 1054.2 hPa | 0 mm | - | 34 W/m² | - |
| 1788005359 | 18.33° C | 99% | 1054.1 hPa | 0 mm | - | 34 W/m² | - |
| 1788005058 | 18.33° C | 98% | 1054 hPa | 0 mm | - | 27 W/m² | - |
| 1788004755 | 18.33° C | 98% | 1054.1 hPa | 0 mm | - | 24 W/m² | - |
| 1788004451 | 18.33° C | 98% | 1053.9 hPa | 0 mm | - | 21 W/m² | - |
| 1788004150 | 18.33° C | 98% | 1053.9 hPa | 0 mm | - | 18 W/m² | - |
| 1788003849 | 18.33° C | 98% | 1053.9 hPa | 0 mm | - | 15 W/m² | - |
| 1788003549 | 18.33° C | 98% | 1053.8 hPa | 0 mm | - | 11 W/m² | - |
* Rain latest hour (hover to see other rain measurements)
** Current wind speed in m/s (hover to see current wind gust speed)